EVG weather

Sveg Airport
Jämtlande län, Sweden

Public forecast

Using degrees Celsius for public forecast. Weather courtesy of forecast.io.

METAR (pilot weather report)

Closest report is Mora Airport, 65.5 nm (121.3 km) S. Retrieved 2019/07/23 15:20 UTC (0 seconds ago):

ESKM 231520Z AUTO VRB03KT 9999 SCT049/// 22/15 Q1016

TAF (pilot weather forecast)

Forecast is more than 12 hours old.

Closest forecast is Sundsvall-Härnösand Airport, 89.1 nm (165.1 km) ENE. Retrieved 2016/05/29 09:33 UTC (3 years ago):

TAF TAF ESNN 290830Z 2909/3018 07006KT 9999 SCT045 BECMG 2913/2915 14010KT